createdAt,value
2019-04-29T14:53:02.329Z,87.08
2019-04-29T14:55:31.803Z,86.95
2019-04-29T14:58:01.255Z,87.65
2019-04-29T15:00:50.816Z,87.22
2019-04-29T15:03:24.907Z,86.97
2019-04-29T15:05:54.492Z,87.06
2019-04-29T15:08:24.073Z,87.83
2019-04-29T15:10:54.132Z,88.12
2019-04-29T15:13:25.702Z,88.08
2019-04-29T15:16:09.638Z,87.47
2019-04-29T15:18:48.692Z,87.56
2019-04-29T15:21:15.830Z,87.80
2019-04-29T15:23:45.401Z,87.93
2019-04-29T15:26:14.936Z,88.30
2019-04-29T15:28:53.540Z,88.05
2019-04-29T15:31:23.903Z,88.02
2019-04-29T15:33:53.501Z,86.65
2019-04-29T15:36:23.050Z,86.10
2019-04-29T15:39:08.568Z,86.36
2019-04-29T15:41:29.462Z,86.25
2019-04-29T15:44:06.439Z,85.79
2019-04-29T15:46:25.992Z,85.46
2019-04-29T15:48:55.556Z,85.53
2019-04-29T15:51:25.040Z,84.57
2019-04-29T15:53:54.603Z,84.90
2019-04-29T15:56:28.731Z,84.86
2019-04-29T15:58:59.571Z,84.89
2019-04-29T16:01:28.180Z,85.16
2019-04-29T16:03:59.250Z,84.32
2019-04-29T16:06:39.982Z,84.56
2019-04-29T16:09:10.094Z,84.00
2019-04-29T16:11:41.224Z,84.48
2019-04-29T16:14:12.321Z,84.45
2019-04-29T16:16:41.808Z,84.75
2019-04-29T16:19:11.251Z,84.35
2019-04-29T16:21:41.772Z,84.46
2019-04-29T16:26:42.578Z,84.13
2019-04-29T16:29:15.144Z,85.30
2019-04-29T16:31:43.182Z,85.12
2019-04-29T16:34:12.649Z,85.59
2019-04-29T16:39:13.487Z,85.83
2019-04-29T16:41:44.705Z,85.49
2019-04-29T16:44:34.033Z,86.51
2019-04-29T16:46:47.238Z,85.71
2019-04-29T16:49:16.750Z,85.81
2019-04-29T16:51:47.953Z,84.76
2019-04-29T16:54:20.516Z,84.43
2019-04-29T16:56:48.796Z,85.14
2019-04-29T16:59:18.203Z,84.91
2019-04-29T17:01:47.824Z,84.92
2019-04-29T17:04:17.309Z,84.16
2019-04-29T17:09:31.649Z,85.32
2019-04-29T17:12:02.292Z,85.18
2019-04-29T17:14:31.700Z,85.62
2019-04-29T17:17:03.952Z,86.10
2019-04-29T17:19:35.043Z,85.91
2019-04-29T17:24:37.631Z,85.35
2019-04-29T17:27:14.171Z,84.57
2019-04-29T17:29:55.549Z,85.19
2019-04-29T17:32:44.624Z,84.83
2019-04-29T17:35:10.665Z,85.81
2019-04-29T17:35:15.681Z,84.61
2019-04-29T17:35:16.215Z,85.97
2019-04-29T17:35:17.595Z,85.88
2019-04-29T17:35:17.729Z,84.57
2019-04-29T17:37:40.490Z,86.10
2019-04-29T17:40:11.889Z,86.19
2019-04-29T17:42:43.077Z,86.14
2019-04-29T17:45:27.071Z,85.77
2019-04-29T17:47:59.935Z,85.95
2019-04-29T17:50:38.618Z,85.75
2019-04-29T17:53:08.499Z,86.41
2019-04-29T17:55:42.689Z,86.60
2019-04-29T17:58:19.977Z,86.18
2019-04-29T18:00:57.902Z,86.21
2019-04-29T18:03:27.267Z,86.82
2019-04-29T18:05:58.363Z,86.98
2019-04-29T18:08:44.926Z,87.58
2019-04-29T18:11:15.038Z,87.23
2019-04-29T18:13:45.842Z,87.40
2019-04-29T18:16:22.146Z,87.22
2019-04-29T18:18:57.313Z,87.55
2019-04-29T18:21:25.003Z,87.76
2019-04-29T18:23:59.258Z,87.35
2019-04-29T18:26:35.827Z,87.20
2019-04-29T18:29:07.963Z,87.53
2019-04-29T18:31:36.927Z,87.87
2019-04-29T18:34:06.409Z,88.11
2019-04-29T18:36:36.057Z,88.51
2019-04-29T18:39:09.077Z,88.88
2019-04-29T18:41:38.505Z,89.08
2019-04-29T18:44:08.088Z,89.79
2019-04-29T18:46:37.672Z,90.20
2019-04-29T18:49:07.305Z,90.27
2019-04-29T18:51:36.822Z,91.00
2019-04-29T18:54:06.451Z,90.81
2019-04-29T18:56:36.657Z,90.45
2019-04-29T18:59:07.484Z,90.90
2019-04-29T19:01:36.957Z,91.50
2019-04-29T19:04:16.149Z,92.27
2019-04-29T19:06:41.187Z,92.61
2019-04-29T19:09:19.976Z,92.32
2019-04-29T19:11:43.491Z,92.10
2019-04-29T19:14:15.096Z,92.55
2019-04-29T19:16:46.155Z,92.83
2019-04-29T19:19:15.682Z,93.07
2019-04-29T19:21:48.155Z,93.43
2019-04-29T19:24:19.183Z,93.19
2019-04-29T19:26:55.646Z,93.65
2019-04-29T19:29:21.194Z,93.83
2019-04-29T19:31:50.822Z,93.73
2019-04-29T19:34:20.353Z,94.13
2019-04-29T19:36:50.729Z,94.28
2019-04-29T19:39:21.804Z,94.41
2019-04-29T19:41:52.289Z,94.59
2019-04-29T19:44:21.700Z,94.92
2019-04-29T19:46:51.204Z,94.68
2019-04-29T19:49:20.617Z,94.89
2019-04-29T19:51:50.077Z,95.17
2019-04-29T19:54:24.475Z,95.30
2019-04-29T19:56:55.612Z,95.27
2019-04-29T19:59:22.258Z,95.69
2019-04-29T20:02:02.046Z,95.79
2019-04-29T20:04:31.477Z,95.96
2019-04-29T20:07:06.510Z,96.17
2019-04-29T20:09:33.313Z,96.35
2019-04-29T20:12:11.323Z,96.46
2019-04-29T20:14:37.002Z,96.37
2019-04-29T20:17:14.143Z,96.31
2019-04-29T20:19:45.716Z,95.93
2019-04-29T20:22:15.928Z,96.42
2019-04-29T20:24:49.749Z,96.33
2019-04-29T20:27:16.964Z,96.31
2019-04-29T20:29:46.604Z,96.47
2019-04-29T20:32:16.739Z,96.42
2019-04-29T20:34:47.206Z,96.79
2019-04-29T20:37:19.781Z,96.75
2019-04-29T20:39:52.044Z,96.95
2019-04-29T20:42:19.221Z,97.35
2019-04-29T20:44:49.483Z,96.97
2019-04-29T20:47:22.888Z,96.87
2019-04-29T20:49:50.289Z,96.85
2019-04-29T20:52:39.657Z,96.79
2019-04-29T20:55:09.865Z,97.28
2019-04-29T20:57:39.982Z,97.14
2019-04-29T21:00:10.111Z,97.01
2019-04-29T21:02:39.817Z,97.28
2019-04-29T21:05:19.871Z,97.41
2019-04-29T21:07:41.349Z,97.39
2019-04-29T21:10:11.125Z,97.55
2019-04-29T21:12:42.187Z,97.84
2019-04-29T21:15:16.167Z,97.85
2019-04-29T21:17:46.207Z,97.73
2019-04-29T21:20:15.711Z,98.37
2019-04-29T21:22:45.577Z,98.36
2019-04-29T21:25:15.208Z,98.55
2019-04-29T21:27:46.964Z,98.37
2019-04-29T21:30:16.009Z,98.52
2019-04-29T21:32:45.553Z,98.61
2019-04-29T21:35:26.975Z,98.91
2019-04-29T21:38:17.914Z,99.28
2019-04-29T21:40:49.385Z,99.52
2019-04-29T21:43:20.646Z,99.55
2019-04-29T21:45:50.175Z,99.45
2019-04-29T21:48:25.649Z,99.58
2019-04-29T21:50:50.787Z,99.69
2019-04-29T21:53:20.454Z,100.00
2019-04-29T21:55:49.941Z,100.00
2019-04-29T21:58:19.548Z,100.00
2019-04-29T22:00:50.015Z,100.00
2019-04-29T22:03:19.828Z,100.00
2019-04-29T22:05:53.468Z,100.00
2019-04-29T22:08:27.163Z,100.00
2019-04-29T22:11:04.387Z,100.00
2019-04-29T22:13:30.647Z,100.00
2019-04-29T22:16:00.211Z,100.00
2019-04-29T22:18:29.847Z,100.00
2019-04-29T22:20:59.630Z,100.00
2019-04-29T22:23:29.110Z,100.00
2019-04-29T22:25:59.015Z,100.00
2019-04-29T22:28:28.555Z,100.00
2019-04-29T22:30:58.169Z,100.00
2019-04-29T22:33:29.660Z,100.00
2019-04-29T22:35:59.020Z,100.00
2019-04-29T22:38:28.758Z,100.00
2019-04-29T22:40:59.852Z,100.00
2019-04-29T22:43:33.821Z,100.00
2019-04-29T22:46:09.512Z,100.00
2019-04-29T22:48:40.544Z,100.00
2019-04-29T22:51:10.145Z,100.00
2019-04-29T22:53:39.992Z,100.00
2019-04-29T22:56:14.182Z,100.00
2019-04-29T22:58:43.965Z,100.00
2019-04-29T23:01:13.389Z,100.00
2019-04-29T23:03:42.843Z,100.00
2019-04-29T23:06:12.325Z,100.00
2019-04-29T23:08:41.853Z,100.00
2019-04-29T23:11:11.312Z,100.00
2019-04-29T23:13:40.762Z,100.00
2019-04-29T23:16:10.353Z,100.00
2019-04-29T23:18:42.294Z,100.00
2019-04-29T23:21:16.493Z,100.00
2019-04-29T23:23:59.581Z,100.00
2019-04-29T23:26:29.180Z,100.00
2019-04-29T23:28:59.473Z,100.00
2019-04-29T23:31:29.847Z,100.00
2019-04-29T23:33:59.366Z,100.00
2019-04-29T23:36:28.885Z,100.00
2019-04-29T23:38:58.346Z,100.00
2019-04-29T23:41:32.997Z,100.00
2019-04-29T23:44:00.001Z,100.00
2019-04-29T23:46:34.183Z,100.00
2019-04-29T23:49:03.179Z,100.00
2019-04-29T23:51:36.308Z,100.00
2019-04-29T23:54:07.874Z,100.00
2019-04-29T23:56:38.570Z,100.00
2019-04-29T23:59:18.852Z,100.00
